createdAt,value
2019-03-17T00:00:48.316Z,67.96
2019-03-17T00:03:17.983Z,68.08
2019-03-17T00:05:47.734Z,68.05
2019-03-17T00:08:17.395Z,68.12
2019-03-17T00:10:47.151Z,68.19
2019-03-17T00:13:17.936Z,68.28
2019-03-17T00:15:47.782Z,68.07
2019-03-17T00:18:17.422Z,67.80
2019-03-17T00:20:47.123Z,67.94
2019-03-17T00:23:16.791Z,68.16
2019-03-17T00:25:46.662Z,68.44
2019-03-17T00:28:16.365Z,68.23
2019-03-17T00:30:46.021Z,67.54
2019-03-17T00:33:15.764Z,67.86
2019-03-17T00:35:45.475Z,67.95
2019-03-17T00:38:15.256Z,67.92
2019-03-17T00:40:44.992Z,67.92
2019-03-17T00:43:14.713Z,67.74
2019-03-17T00:45:44.504Z,67.97
2019-03-17T00:48:14.341Z,67.98
2019-03-17T00:50:43.984Z,67.64
2019-03-17T00:53:13.900Z,67.89
2019-03-17T00:55:43.571Z,67.86
2019-03-17T00:58:13.258Z,67.86
2019-03-17T01:00:43.209Z,68.02
2019-03-17T01:03:12.866Z,67.87
2019-03-17T01:05:42.551Z,67.91
2019-03-17T01:08:12.197Z,67.90
2019-03-17T01:10:42.029Z,67.34
2019-03-17T01:13:11.801Z,67.64
2019-03-17T01:15:41.478Z,67.44
2019-03-17T01:18:11.207Z,67.43
2019-03-17T01:20:40.912Z,68.00
2019-03-17T01:23:10.591Z,68.15
2019-03-17T01:25:40.420Z,68.46
2019-03-17T01:28:10.160Z,68.33
2019-03-17T01:30:39.970Z,68.11
2019-03-17T01:33:09.709Z,68.22
2019-03-17T01:35:39.522Z,68.32
2019-03-17T01:38:09.221Z,68.51
2019-03-17T01:40:39.280Z,68.24
2019-03-17T01:43:08.917Z,68.42
2019-03-17T01:45:38.559Z,68.46
2019-03-17T01:48:08.411Z,68.78
2019-03-17T01:50:38.233Z,68.74
2019-03-17T01:53:07.923Z,68.39
2019-03-17T01:55:37.715Z,68.57
2019-03-17T01:58:07.388Z,68.49
2019-03-17T02:00:37.378Z,68.07
2019-03-17T02:03:07.063Z,68.08
2019-03-17T02:05:38.102Z,68.23
2019-03-17T02:08:07.813Z,68.35
2019-03-17T02:10:37.577Z,68.47
2019-03-17T02:13:07.298Z,68.69
2019-03-17T02:15:37.007Z,68.74
2019-03-17T02:18:06.826Z,68.29
2019-03-17T02:20:36.560Z,68.62
2019-03-17T02:23:06.337Z,68.48
2019-03-17T02:25:36.070Z,67.96
2019-03-17T02:28:05.822Z,68.20
2019-03-17T02:30:35.870Z,68.20
2019-03-17T02:33:05.594Z,68.43
2019-03-17T02:35:39.329Z,68.75
2019-03-17T02:38:06.872Z,69.04
2019-03-17T02:40:36.550Z,69.29
2019-03-17T02:43:06.200Z,68.95
2019-03-17T02:45:35.866Z,68.84
2019-03-17T02:48:05.524Z,68.90
2019-03-17T02:50:35.189Z,69.05
2019-03-17T02:53:04.939Z,68.94
2019-03-17T02:55:34.637Z,68.98
2019-03-17T02:58:04.358Z,68.99
2019-03-17T03:00:34.102Z,68.97
2019-03-17T03:03:03.858Z,68.28
2019-03-17T03:05:33.658Z,66.77
2019-03-17T03:08:03.405Z,66.06
2019-03-17T03:10:33.234Z,66.08
2019-03-17T03:13:02.972Z,66.23
2019-03-17T03:15:32.657Z,65.38
2019-03-17T03:18:02.356Z,64.87
2019-03-17T03:20:32.009Z,64.95
2019-03-17T03:23:01.722Z,64.78
2019-03-17T03:25:31.439Z,65.04
2019-03-17T03:28:01.137Z,65.28
2019-03-17T03:30:30.857Z,66.29
2019-03-17T03:33:00.558Z,66.24
2019-03-17T03:35:30.273Z,66.55
2019-03-17T03:38:00.043Z,67.10
2019-03-17T03:40:29.707Z,67.52
2019-03-17T03:42:59.550Z,67.29
2019-03-17T03:45:29.223Z,67.85
2019-03-17T03:47:58.879Z,67.61
2019-03-17T03:50:28.650Z,67.51
2019-03-17T03:52:58.358Z,68.15
2019-03-17T03:55:28.154Z,68.92
2019-03-17T03:57:57.936Z,69.37
2019-03-17T04:00:27.812Z,69.49
2019-03-17T04:02:57.536Z,69.99
2019-03-17T04:05:27.233Z,70.19
2019-03-17T04:07:56.904Z,70.93
2019-03-17T04:10:26.609Z,71.82
2019-03-17T04:12:56.269Z,72.85
2019-03-17T04:15:26.071Z,74.04
2019-03-17T04:17:55.837Z,74.81
2019-03-17T04:20:25.592Z,74.70
2019-03-17T04:22:55.423Z,75.05
2019-03-17T04:25:25.191Z,74.92
2019-03-17T04:27:54.987Z,73.64
2019-03-17T04:30:25.916Z,72.95
2019-03-17T04:32:55.684Z,72.77
2019-03-17T04:35:25.343Z,72.31
2019-03-17T04:37:55.254Z,71.83
2019-03-17T04:40:24.905Z,72.60
2019-03-17T04:42:54.618Z,73.09
2019-03-17T04:45:24.508Z,73.45
2019-03-17T04:47:54.203Z,73.58
2019-03-17T04:50:23.920Z,73.71
2019-03-17T04:52:59.020Z,74.18
2019-03-17T04:55:28.653Z,74.57
2019-03-17T04:57:58.335Z,74.86
2019-03-17T05:00:28.186Z,75.06
2019-03-17T05:02:57.912Z,75.33
2019-03-17T05:05:28.988Z,75.49
2019-03-17T05:07:58.688Z,75.79
2019-03-17T05:10:28.337Z,76.18
2019-03-17T05:12:58.032Z,76.66
2019-03-17T05:15:27.837Z,77.15
2019-03-17T05:17:57.601Z,77.55
2019-03-17T05:20:27.325Z,77.87
2019-03-17T05:22:57.024Z,78.17
2019-03-17T05:25:26.680Z,78.31
2019-03-17T05:27:56.363Z,78.40
2019-03-17T05:30:26.033Z,78.27
2019-03-17T05:32:55.785Z,79.07
2019-03-17T05:35:25.455Z,79.53
2019-03-17T05:37:55.211Z,79.60
2019-03-17T05:40:25.074Z,79.76
2019-03-17T05:42:54.709Z,79.91
2019-03-17T05:45:24.417Z,79.78
2019-03-17T05:47:54.059Z,80.00
2019-03-17T05:50:23.813Z,79.96
2019-03-17T05:52:53.580Z,80.09
2019-03-17T05:55:23.374Z,79.95
2019-03-17T05:57:53.037Z,79.64
2019-03-17T06:00:22.799Z,79.76
2019-03-17T06:02:52.445Z,80.59
2019-03-17T06:05:22.142Z,81.11
2019-03-17T06:07:51.800Z,81.07
2019-03-17T06:10:21.510Z,81.31
2019-03-17T06:12:51.258Z,81.38
2019-03-17T06:15:20.929Z,81.27
2019-03-17T06:17:50.645Z,81.70
2019-03-17T06:20:20.287Z,81.84
2019-03-17T06:22:50.049Z,81.96
2019-03-17T06:25:19.734Z,82.33
2019-03-17T06:27:49.465Z,82.15
2019-03-17T06:30:19.320Z,82.21
2019-03-17T06:32:49.030Z,82.32
2019-03-17T06:35:18.702Z,83.37
2019-03-17T06:37:48.403Z,81.83
2019-03-17T06:40:18.056Z,81.94
2019-03-17T06:42:47.810Z,81.78
2019-03-17T06:45:17.519Z,81.64
2019-03-17T06:47:47.280Z,82.07
2019-03-17T06:50:17.204Z,81.97
2019-03-17T06:52:46.967Z,82.68
2019-03-17T06:55:18.690Z,82.34
2019-03-17T06:57:48.395Z,82.49
2019-03-17T07:00:18.326Z,82.88
2019-03-17T07:02:48.036Z,83.44
2019-03-17T07:05:17.939Z,84.33
2019-03-17T07:07:47.584Z,84.05
2019-03-17T07:10:17.441Z,82.87
2019-03-17T07:12:47.161Z,82.62
2019-03-17T07:15:17.094Z,82.57
2019-03-17T07:17:46.745Z,82.96
2019-03-17T07:20:16.563Z,82.91
2019-03-17T07:22:46.282Z,83.33
2019-03-17T07:25:16.058Z,82.11
2019-03-17T07:27:45.750Z,79.73
2019-03-17T07:30:17.590Z,79.34
2019-03-17T07:32:47.330Z,79.73
2019-03-17T07:35:17.067Z,79.74
2019-03-17T07:37:56.284Z,80.09
2019-03-17T07:40:18.251Z,79.76
2019-03-17T07:42:47.914Z,79.90
2019-03-17T07:45:17.615Z,79.71
2019-03-17T07:47:47.343Z,79.21
2019-03-17T07:50:17.202Z,79.16
2019-03-17T07:52:46.922Z,78.56
2019-03-17T07:55:16.592Z,78.44
2019-03-17T07:57:46.283Z,78.62
2019-03-17T08:00:16.375Z,78.78
2019-03-17T08:02:46.034Z,77.75
2019-03-17T08:05:15.851Z,77.58
2019-03-17T08:07:45.759Z,76.90
2019-03-17T08:10:17.080Z,76.96
2019-03-17T08:12:46.843Z,76.82
2019-03-17T08:15:16.739Z,76.75
2019-03-17T08:17:46.374Z,76.91
2019-03-17T08:20:16.290Z,76.74
2019-03-17T08:22:45.957Z,77.46
2019-03-17T08:25:15.715Z,76.94
2019-03-17T08:27:45.351Z,76.52
2019-03-17T08:30:17.223Z,76.46
2019-03-17T08:32:46.875Z,75.46
2019-03-17T08:35:16.679Z,75.61
2019-03-17T08:37:46.439Z,75.22
2019-03-17T08:40:20.127Z,75.21
2019-03-17T08:42:50.081Z,75.44
2019-03-17T08:45:19.827Z,75.34
2019-03-17T08:47:57.909Z,74.82
2019-03-17T08:50:21.124Z,74.41
2019-03-17T08:52:50.783Z,73.95
2019-03-17T08:55:20.605Z,73.85
2019-03-17T08:57:50.288Z,73.47
2019-03-17T09:00:21.367Z,73.20
2019-03-17T09:02:51.028Z,72.84
2019-03-17T09:05:20.843Z,72.41
2019-03-17T09:07:50.558Z,72.19
2019-03-17T09:10:20.268Z,72.05
2019-03-17T09:12:49.895Z,72.21
2019-03-17T09:15:19.670Z,72.57
2019-03-17T09:17:49.440Z,72.84
2019-03-17T09:20:19.355Z,72.75
2019-03-17T09:22:49.045Z,72.69
2019-03-17T09:25:18.717Z,72.94
2019-03-17T09:27:48.454Z,73.20
2019-03-17T09:30:19.230Z,73.61
2019-03-17T09:32:48.907Z,74.23
2019-03-17T09:35:18.640Z,75.79
2019-03-17T09:37:48.455Z,76.58
2019-03-17T09:40:19.301Z,76.81
2019-03-17T09:42:49.069Z,77.19
2019-03-17T09:45:18.873Z,77.45
2019-03-17T09:47:48.529Z,78.38
2019-03-17T09:50:22.817Z,79.22
2019-03-17T09:52:52.547Z,79.69
2019-03-17T09:55:22.201Z,80.09
2019-03-17T09:57:51.870Z,80.13
2019-03-17T10:00:23.340Z,80.72
2019-03-17T10:02:52.984Z,80.99
2019-03-17T10:05:22.717Z,81.36
2019-03-17T10:07:52.359Z,82.12
2019-03-17T10:10:25.103Z,77.39
2019-03-17T10:12:54.781Z,79.49
2019-03-17T10:15:24.703Z,78.92
2019-03-17T10:17:54.611Z,77.15
2019-03-17T10:20:24.365Z,77.42
2019-03-17T10:22:54.071Z,78.49
2019-03-17T10:25:24.486Z,78.33
2019-03-17T10:27:54.198Z,78.33
2019-03-17T10:30:23.952Z,78.13
2019-03-17T10:32:53.806Z,78.60
2019-03-17T10:35:23.549Z,78.59
2019-03-17T10:37:53.220Z,79.18
2019-03-17T10:40:24.444Z,79.07
2019-03-17T10:42:54.101Z,79.29
2019-03-17T10:45:23.772Z,79.20
2019-03-17T10:47:54.647Z,78.92
2019-03-17T10:50:24.580Z,77.94
2019-03-17T10:52:54.337Z,77.67
2019-03-17T10:55:24.203Z,77.33
2019-03-17T10:57:54.003Z,73.12
2019-03-17T11:00:24.971Z,70.79
2019-03-17T11:02:54.644Z,69.52
2019-03-17T11:05:24.316Z,70.45
2019-03-17T11:07:54.062Z,71.94
2019-03-17T11:10:23.725Z,72.15
2019-03-17T11:12:53.604Z,72.02
2019-03-17T11:15:26.083Z,72.95
2019-03-17T11:17:55.833Z,72.56
2019-03-17T11:20:25.476Z,72.96
2019-03-17T11:22:55.173Z,71.70
2019-03-17T11:25:24.863Z,72.26
2019-03-17T11:27:54.563Z,71.08
2019-03-17T11:30:24.447Z,71.30
2019-03-17T11:32:54.154Z,70.47
2019-03-17T11:35:23.806Z,70.26
2019-03-17T11:37:53.566Z,69.57
2019-03-17T11:40:23.492Z,70.35
2019-03-17T11:42:53.398Z,70.73
2019-03-17T11:45:23.095Z,71.31
2019-03-17T11:47:53.461Z,70.18
2019-03-17T11:50:23.902Z,70.93
2019-03-17T11:52:53.757Z,70.70
2019-03-17T11:55:23.585Z,69.87
2019-03-17T11:57:53.367Z,68.61
2019-03-17T12:00:24.560Z,68.67
2019-03-17T12:02:54.374Z,67.91
2019-03-17T12:05:24.126Z,67.54
2019-03-17T12:07:53.761Z,66.06
2019-03-17T12:10:25.596Z,61.68
2019-03-17T12:12:55.273Z,60.54
2019-03-17T12:15:33.885Z,60.16
2019-03-17T12:18:03.949Z,60.05
2019-03-17T12:20:33.584Z,60.39
2019-03-17T12:23:03.383Z,59.98
2019-03-17T12:25:33.261Z,60.26
2019-03-17T12:28:03.481Z,59.95
2019-03-17T12:30:33.207Z,59.21
2019-03-17T12:33:02.908Z,59.29
2019-03-17T12:35:32.695Z,58.14
2019-03-17T12:38:02.475Z,57.92
2019-03-17T12:40:32.134Z,58.37
2019-03-17T12:43:01.827Z,57.06
2019-03-17T12:45:31.500Z,57.38
2019-03-17T12:48:01.266Z,57.81
2019-03-17T12:50:30.933Z,58.63
2019-03-17T12:53:00.632Z,59.24
2019-03-17T12:55:30.343Z,59.03
2019-03-17T12:58:00.142Z,59.39
2019-03-17T13:00:29.859Z,58.42
2019-03-17T13:02:59.650Z,58.09
2019-03-17T13:05:29.337Z,57.23
2019-03-17T13:07:59.026Z,56.95
2019-03-17T13:10:28.671Z,56.63
2019-03-17T13:12:58.448Z,57.18
2019-03-17T13:15:28.102Z,59.32
2019-03-17T13:17:57.764Z,63.22
2019-03-17T13:20:29.776Z,65.51
2019-03-17T13:22:59.057Z,66.74
2019-03-17T13:25:28.801Z,67.68
2019-03-17T13:27:58.491Z,68.42
2019-03-17T13:30:28.226Z,67.07
2019-03-17T13:32:57.912Z,66.83
2019-03-17T13:35:27.654Z,66.93
2019-03-17T13:37:57.501Z,66.78
2019-03-17T13:40:29.976Z,67.42
2019-03-17T13:42:58.835Z,68.57
2019-03-17T13:45:28.621Z,67.88
2019-03-17T13:47:58.425Z,66.68
2019-03-17T13:50:28.098Z,65.42
2019-03-17T13:52:57.841Z,64.60
2019-03-17T13:55:27.669Z,65.19
2019-03-17T13:58:07.742Z,65.07
2019-03-17T14:00:37.486Z,64.63
2019-03-17T14:03:07.200Z,65.48
2019-03-17T14:05:37.067Z,66.23
2019-03-17T14:08:06.788Z,67.15
2019-03-17T14:10:41.229Z,66.04
2019-03-17T14:13:07.898Z,68.54
2019-03-17T14:15:37.613Z,67.20
2019-03-17T14:18:07.294Z,67.43
2019-03-17T14:20:36.988Z,66.94
2019-03-17T14:23:06.838Z,66.21
2019-03-17T14:25:38.540Z,62.66
2019-03-17T14:28:08.357Z,60.15
2019-03-17T14:30:38.095Z,57.70
2019-03-17T14:33:07.848Z,56.14
2019-03-17T14:35:37.669Z,55.30
2019-03-17T14:38:07.483Z,55.94
2019-03-17T14:40:37.195Z,56.25
2019-03-17T14:43:06.957Z,57.89
2019-03-17T14:45:36.706Z,57.40
2019-03-17T14:48:06.659Z,57.92
2019-03-17T14:50:36.409Z,58.90
2019-03-17T14:53:06.273Z,59.05
2019-03-17T14:55:35.936Z,59.75
2019-03-17T14:58:05.861Z,58.84
2019-03-17T15:00:35.593Z,58.90
2019-03-17T15:03:05.428Z,58.26
2019-03-17T15:05:35.228Z,58.58
2019-03-17T15:08:04.988Z,59.44
2019-03-17T15:10:34.743Z,59.21
2019-03-17T15:13:04.382Z,60.12
2019-03-17T15:15:34.549Z,60.59
2019-03-17T15:18:04.345Z,60.83
2019-03-17T15:20:34.113Z,60.88
2019-03-17T15:23:03.787Z,60.41
2019-03-17T15:25:33.480Z,60.95
2019-03-17T15:28:03.153Z,60.74
2019-03-17T15:30:35.365Z,60.71
2019-03-17T15:33:05.262Z,60.51
2019-03-17T15:35:34.936Z,59.69
2019-03-17T15:38:04.808Z,60.45
2019-03-17T15:40:34.531Z,60.92
2019-03-17T15:43:04.289Z,61.18
2019-03-17T15:45:33.982Z,61.24
2019-03-17T15:48:04.400Z,61.66
2019-03-17T15:50:34.355Z,62.18
2019-03-17T15:53:04.210Z,62.17
2019-03-17T15:55:34.020Z,62.24
2019-03-17T15:58:03.754Z,61.82
2019-03-17T16:00:33.551Z,62.70
2019-03-17T16:03:03.256Z,62.79
2019-03-17T16:05:32.953Z,63.50
2019-03-17T16:08:02.629Z,62.54
2019-03-17T16:10:33.407Z,62.63
2019-03-17T16:13:03.133Z,62.38
2019-03-17T16:15:32.945Z,61.12
2019-03-17T16:18:03.608Z,60.84
2019-03-17T16:20:33.369Z,61.86
2019-03-17T16:23:03.029Z,62.52
2019-03-17T16:25:38.644Z,62.97
2019-03-17T16:28:08.309Z,63.36
2019-03-17T16:30:38.051Z,62.63
2019-03-17T16:33:07.754Z,62.43
2019-03-17T16:35:37.519Z,62.16
2019-03-17T16:38:07.339Z,62.38
2019-03-17T16:40:37.796Z,62.85
2019-03-17T16:43:07.583Z,62.17
2019-03-17T16:45:37.277Z,62.72
2019-03-17T16:48:07.012Z,62.60
2019-03-17T16:50:36.674Z,62.89
2019-03-17T16:53:06.568Z,63.21
2019-03-17T16:55:36.409Z,63.28
2019-03-17T16:58:06.375Z,63.42
2019-03-17T17:00:36.198Z,63.69
2019-03-17T17:03:06.055Z,63.19
2019-03-17T17:05:35.721Z,63.69
2019-03-17T17:08:05.474Z,64.00
2019-03-17T17:10:38.218Z,63.41
2019-03-17T17:13:06.839Z,63.86
2019-03-17T17:15:37.154Z,64.36
2019-03-17T17:18:06.979Z,64.69
2019-03-17T17:20:41.763Z,64.40
2019-03-17T17:23:11.850Z,64.69
2019-03-17T17:25:41.702Z,64.17
2019-03-17T17:28:11.473Z,64.56
2019-03-17T17:30:41.143Z,64.60
2019-03-17T17:33:10.948Z,64.92
2019-03-17T17:35:40.580Z,65.11
2019-03-17T17:38:11.539Z,65.13
2019-03-17T17:40:41.342Z,65.66
2019-03-17T17:43:11.070Z,65.78
2019-03-17T17:45:40.799Z,66.40
2019-03-17T17:48:10.508Z,67.15
2019-03-17T17:50:40.302Z,67.66
2019-03-17T17:53:10.021Z,67.62
2019-03-17T17:55:39.861Z,67.52
2019-03-17T17:58:09.524Z,67.04
2019-03-17T18:00:43.573Z,66.56
2019-03-17T18:03:13.239Z,65.97
2019-03-17T18:05:43.254Z,64.31
2019-03-17T18:08:15.471Z,64.51
2019-03-17T18:10:45.477Z,64.19
2019-03-17T18:13:15.154Z,64.35
2019-03-17T18:15:44.860Z,64.67
2019-03-17T18:18:14.595Z,65.41
2019-03-17T18:20:44.227Z,65.68
2019-03-17T18:23:18.161Z,66.30
2019-03-17T18:25:45.411Z,67.02
2019-03-17T18:28:15.088Z,67.67
2019-03-17T18:30:44.846Z,67.96
2019-03-17T18:33:14.527Z,67.94
2019-03-17T18:35:44.249Z,68.07
2019-03-17T18:38:14.046Z,68.13
2019-03-17T18:40:43.877Z,67.06
2019-03-17T18:43:13.662Z,67.00
2019-03-17T18:45:43.343Z,66.78
2019-03-17T18:48:13.004Z,66.11
2019-03-17T18:50:43.029Z,65.14
2019-03-17T18:53:12.835Z,66.68
2019-03-17T18:55:42.526Z,63.99
2019-03-17T18:58:12.273Z,63.54
2019-03-17T19:00:42.154Z,63.98
2019-03-17T19:03:11.920Z,64.19
2019-03-17T19:05:41.618Z,64.13
2019-03-17T19:08:11.285Z,64.52
2019-03-17T19:10:41.110Z,64.61
2019-03-17T19:13:10.738Z,64.97
2019-03-17T19:15:40.498Z,65.18
2019-03-17T19:18:10.224Z,65.54
2019-03-17T19:20:39.960Z,65.69
2019-03-17T19:23:09.731Z,65.71
2019-03-17T19:25:39.454Z,66.14
2019-03-17T19:28:09.252Z,66.21
2019-03-17T19:30:39.034Z,66.20
2019-03-17T19:33:08.812Z,67.08
2019-03-17T19:35:38.485Z,69.62
2019-03-17T19:38:08.319Z,71.39
2019-03-17T19:40:38.063Z,73.10
2019-03-17T19:43:07.800Z,72.88
2019-03-17T19:45:37.531Z,72.68
2019-03-17T19:48:07.221Z,72.93
2019-03-17T19:50:36.990Z,73.18
2019-03-17T19:53:06.852Z,72.99
2019-03-17T19:55:36.516Z,72.94
2019-03-17T19:58:06.297Z,73.16
2019-03-17T20:00:36.117Z,73.01
2019-03-17T20:03:05.765Z,72.62
2019-03-17T20:05:35.447Z,72.52
2019-03-17T20:08:05.108Z,72.41
2019-03-17T20:10:35.811Z,72.50
2019-03-17T20:13:11.624Z,72.19
2019-03-17T20:15:37.374Z,72.44
2019-03-17T20:18:07.031Z,72.09
2019-03-17T20:20:36.746Z,72.10
2019-03-17T20:23:06.395Z,72.65
2019-03-17T20:25:36.105Z,72.94
2019-03-17T20:28:05.841Z,72.91
2019-03-17T20:30:35.617Z,73.27
2019-03-17T20:33:05.353Z,72.84
2019-03-17T20:35:35.089Z,73.08
2019-03-17T20:38:04.930Z,73.10
2019-03-17T20:40:34.584Z,73.17
2019-03-17T20:43:04.352Z,73.12
2019-03-17T20:45:34.161Z,73.21
2019-03-17T20:48:03.930Z,73.12
2019-03-17T20:50:33.855Z,73.14
2019-03-17T20:53:03.605Z,73.25
2019-03-17T20:55:33.260Z,73.56
2019-03-17T20:58:02.930Z,73.17
2019-03-17T21:00:32.635Z,73.35
2019-03-17T21:03:02.462Z,73.52
2019-03-17T21:05:32.252Z,73.90
2019-03-17T21:08:01.914Z,73.40
2019-03-17T21:10:31.649Z,73.22
2019-03-17T21:13:01.300Z,73.36
2019-03-17T21:15:31.084Z,73.09
2019-03-17T21:18:00.742Z,72.99
2019-03-17T21:20:30.401Z,72.68
2019-03-17T21:23:00.122Z,72.58
2019-03-17T21:25:29.884Z,72.38
2019-03-17T21:27:59.516Z,73.43
2019-03-17T21:30:33.814Z,72.95
2019-03-17T21:33:03.521Z,72.82
2019-03-17T21:35:33.284Z,72.66
2019-03-17T21:38:02.937Z,72.30
2019-03-17T21:40:32.657Z,72.37
2019-03-17T21:43:02.291Z,72.28
2019-03-17T21:45:31.971Z,72.14
2019-03-17T21:48:01.610Z,72.29
2019-03-17T21:50:31.333Z,72.28
2019-03-17T21:53:00.997Z,72.77
2019-03-17T21:55:30.956Z,73.11
2019-03-17T21:58:07.804Z,73.16
2019-03-17T22:00:32.129Z,73.01
2019-03-17T22:03:01.918Z,73.13
2019-03-17T22:05:31.662Z,73.40
2019-03-17T22:08:01.473Z,73.85
2019-03-17T22:10:31.147Z,73.62
2019-03-17T22:13:00.937Z,73.77
2019-03-17T22:15:30.585Z,74.05
2019-03-17T22:18:00.312Z,74.03
2019-03-17T22:20:30.061Z,74.20
2019-03-17T22:22:59.729Z,74.17
2019-03-17T22:25:29.473Z,74.20
2019-03-17T22:28:08.279Z,74.07
2019-03-17T22:30:30.536Z,74.08
2019-03-17T22:33:00.248Z,74.51
2019-03-17T22:35:29.954Z,74.62
2019-03-17T22:37:59.650Z,74.43
2019-03-17T22:40:29.340Z,74.79
2019-03-17T22:42:59.062Z,74.60
2019-03-17T22:45:28.745Z,74.99
2019-03-17T22:47:58.411Z,75.19
2019-03-17T22:50:28.086Z,75.25
2019-03-17T22:52:57.874Z,75.20
2019-03-17T22:55:27.637Z,75.31
2019-03-17T22:57:59.254Z,75.18
2019-03-17T23:00:34.230Z,75.53
2019-03-17T23:03:04.158Z,75.45
2019-03-17T23:05:33.998Z,75.39
2019-03-17T23:08:03.762Z,75.67
2019-03-17T23:10:33.576Z,75.78
2019-03-17T23:13:03.254Z,75.87
2019-03-17T23:15:35.601Z,75.60
2019-03-17T23:18:04.800Z,75.79
2019-03-17T23:20:34.508Z,75.73
2019-03-17T23:23:04.169Z,75.70
2019-03-17T23:25:33.994Z,75.97
2019-03-17T23:28:03.785Z,75.87
2019-03-17T23:30:33.465Z,75.88
2019-03-17T23:33:03.143Z,75.47
2019-03-17T23:35:32.860Z,75.85
2019-03-17T23:38:02.540Z,76.08
2019-03-17T23:40:32.292Z,76.42
2019-03-17T23:43:02.060Z,76.29
2019-03-17T23:45:31.720Z,76.28
2019-03-17T23:48:01.535Z,76.46
2019-03-17T23:50:31.172Z,76.66
2019-03-17T23:53:00.924Z,76.42
2019-03-17T23:55:30.679Z,76.54
2019-03-17T23:58:00.506Z,76.91
